createdAt,value
2023-03-20T00:02:19.121Z,13.83
2023-03-20T00:04:45.734Z,13.90
2023-03-20T00:07:12.658Z,12.50
2023-03-20T00:09:39.495Z,16.93
2023-03-20T00:12:06.272Z,12.57
2023-03-20T00:14:34.491Z,14.53
2023-03-20T00:17:01.966Z,12.93
2023-03-20T00:19:30.946Z,14.23
2023-03-20T00:21:57.662Z,15.60
2023-03-20T00:24:24.762Z,14.70
2023-03-20T00:26:52.962Z,14.43
2023-03-20T00:29:27.576Z,16.57
2023-03-20T00:31:55.055Z,14.73
2023-03-20T00:34:24.218Z,14.47
2023-03-20T00:36:51.679Z,15.47
2023-03-20T00:39:18.185Z,16.57
2023-03-20T00:41:51.591Z,15.57
2023-03-20T00:44:34.147Z,19.90
2023-03-20T00:47:13.173Z,15.67
2023-03-20T00:49:40.262Z,15.07
2023-03-20T00:52:06.699Z,18.60
2023-03-20T00:54:33.092Z,16.00
2023-03-20T00:57:22.502Z,17.43
2023-03-20T01:00:14.531Z,16.83
2023-03-20T01:02:41.069Z,17.07
2023-03-20T01:05:08.180Z,17.00
2023-03-20T01:07:34.557Z,16.63
2023-03-20T01:10:01.157Z,15.10
2023-03-20T01:12:28.213Z,18.60
2023-03-20T01:14:58.627Z,18.23
2023-03-20T01:17:27.352Z,19.07
2023-03-20T01:19:53.960Z,15.13
2023-03-20T01:22:20.475Z,14.57
2023-03-20T01:24:47.337Z,14.77
2023-03-20T01:27:15.812Z,14.37
2023-03-20T01:29:42.216Z,14.30
2023-03-20T01:32:12.548Z,15.77
2023-03-20T01:34:39.087Z,13.63
2023-03-20T01:37:12.710Z,15.20
2023-03-20T01:39:39.085Z,14.43
2023-03-20T01:42:07.037Z,17.27
2023-03-20T01:44:35.774Z,15.57
2023-03-20T01:47:04.510Z,17.47
2023-03-20T01:50:01.762Z,15.70
2023-03-20T01:52:28.344Z,17.07
2023-03-20T01:54:54.889Z,17.50
2023-03-20T01:57:24.915Z,16.67
2023-03-20T02:00:03.181Z,18.93
2023-03-20T02:02:32.127Z,17.17
2023-03-20T02:05:03.937Z,16.33
2023-03-20T02:07:33.065Z,19.03
2023-03-20T02:09:59.691Z,16.37
2023-03-20T02:12:26.394Z,16.17
2023-03-20T02:14:53.163Z,16.20
2023-03-20T02:17:21.290Z,16.80
2023-03-20T02:20:09.337Z,18.20
2023-03-20T02:23:00.730Z,17.13
2023-03-20T02:25:45.780Z,16.50
2023-03-20T02:28:34.181Z,17.93
2023-03-20T02:31:17.708Z,15.97
2023-03-20T02:34:12.253Z,15.97
2023-03-20T02:37:16.612Z,15.13
2023-03-20T02:40:05.950Z,16.67
2023-03-20T02:42:47.495Z,15.83
2023-03-20T02:45:18.975Z,16.67
2023-03-20T02:47:57.334Z,16.27
2023-03-20T02:50:42.965Z,15.10
2023-03-20T02:53:12.807Z,15.93
2023-03-20T02:55:49.372Z,17.67
2023-03-20T02:58:22.546Z,17.03
2023-03-20T03:01:04.221Z,16.27
2023-03-20T03:03:38.339Z,18.67
2023-03-20T03:06:17.722Z,15.33
2023-03-20T03:08:49.673Z,18.17
2023-03-20T03:11:17.536Z,19.20
2023-03-20T03:13:48.829Z,16.67
2023-03-20T03:16:26.624Z,16.13
2023-03-20T03:19:06.706Z,15.83
2023-03-20T03:21:35.059Z,15.47
2023-03-20T03:24:02.619Z,16.00
2023-03-20T03:26:35.307Z,16.80
2023-03-20T03:29:12.569Z,15.30
2023-03-20T03:31:39.639Z,19.40
2023-03-20T03:34:06.453Z,16.83
2023-03-20T03:36:54.503Z,14.73
2023-03-20T03:39:36.923Z,16.40
2023-03-20T03:42:28.010Z,18.40
2023-03-20T03:45:17.311Z,15.97
2023-03-20T03:47:50.300Z,16.63
2023-03-20T03:50:21.899Z,15.83
2023-03-20T03:52:50.398Z,16.70
2023-03-20T03:55:23.895Z,15.93
2023-03-20T03:57:56.474Z,18.13
2023-03-20T04:00:25.987Z,16.87
2023-03-20T04:02:56.139Z,17.07
2023-03-20T04:05:27.663Z,17.13
2023-03-20T04:07:56.400Z,17.60
2023-03-20T04:10:22.729Z,18.50
2023-03-20T04:12:49.104Z,19.03
2023-03-20T04:15:16.518Z,16.47
2023-03-20T04:17:44.458Z,18.63
2023-03-20T04:20:12.276Z,17.17
2023-03-20T04:22:38.804Z,19.17
2023-03-20T04:25:07.098Z,18.67
2023-03-20T04:27:33.516Z,15.50
2023-03-20T04:29:59.900Z,16.60
2023-03-20T04:32:26.341Z,18.03
2023-03-20T04:34:53.434Z,18.53
2023-03-20T04:37:19.891Z,17.50
2023-03-20T04:39:46.397Z,15.33
2023-03-20T04:42:12.791Z,17.93
2023-03-20T04:44:39.130Z,19.07
2023-03-20T04:47:05.570Z,20.03
2023-03-20T04:49:31.942Z,19.57
2023-03-20T04:51:58.317Z,18.40
2023-03-20T04:54:25.208Z,19.70
2023-03-20T04:56:51.674Z,20.03
2023-03-20T04:59:18.270Z,16.50
2023-03-20T05:01:44.640Z,18.07
2023-03-20T05:04:11.156Z,14.97
2023-03-20T05:06:37.556Z,18.93
2023-03-20T05:09:04.165Z,14.93
2023-03-20T05:11:30.600Z,14.40
2023-03-20T05:13:57.222Z,13.70
2023-03-20T05:16:23.873Z,13.50
2023-03-20T05:18:50.452Z,14.60
2023-03-20T05:21:16.881Z,14.47
2023-03-20T05:23:43.355Z,15.47
2023-03-20T05:26:09.674Z,13.93
2023-03-20T05:28:37.345Z,13.83
2023-03-20T05:31:04.115Z,13.67
2023-03-20T05:33:31.686Z,14.97
2023-03-20T05:35:58.159Z,15.13
2023-03-20T05:38:25.742Z,14.93
2023-03-20T05:40:59.194Z,12.30
2023-03-20T05:43:25.985Z,12.33
2023-03-20T05:45:53.327Z,12.77
2023-03-20T05:48:19.730Z,14.57
2023-03-20T05:50:46.282Z,12.80
2023-03-20T05:53:12.738Z,14.03
2023-03-20T05:55:39.114Z,12.17
2023-03-20T05:58:06.201Z,13.23
2023-03-20T06:00:32.623Z,11.90
2023-03-20T06:02:59.260Z,14.27
2023-03-20T06:05:26.069Z,13.70
2023-03-20T06:07:52.462Z,10.00
2023-03-20T06:10:20.728Z,10.90
2023-03-20T06:12:47.142Z,12.33
2023-03-20T06:15:13.530Z,12.97
2023-03-20T06:17:39.990Z,12.00
2023-03-20T06:20:07.303Z,12.63
2023-03-20T06:22:33.821Z,14.30
2023-03-20T06:25:01.300Z,12.50
2023-03-20T06:27:27.712Z,16.17
2023-03-20T06:29:54.089Z,11.40
2023-03-20T06:32:20.828Z,14.47
2023-03-20T06:34:47.725Z,15.70
2023-03-20T06:37:14.070Z,16.57
2023-03-20T06:39:41.662Z,16.60
2023-03-20T06:42:08.471Z,13.50
2023-03-20T06:44:34.772Z,14.70
2023-03-20T06:47:01.152Z,14.93
2023-03-20T06:49:28.084Z,18.13
2023-03-20T06:51:54.534Z,14.83
2023-03-20T06:54:21.027Z,14.33
2023-03-20T06:56:47.445Z,15.60
2023-03-20T06:59:13.945Z,17.53
2023-03-20T07:01:40.459Z,14.00
2023-03-20T07:04:07.541Z,13.50
2023-03-20T07:06:34.072Z,15.80
2023-03-20T07:09:01.384Z,14.10
2023-03-20T07:11:28.492Z,17.53
2023-03-20T07:13:54.887Z,12.27
2023-03-20T07:16:21.648Z,15.97
2023-03-20T07:18:48.074Z,14.87
2023-03-20T07:21:20.286Z,16.27
2023-03-20T07:23:46.949Z,15.63
2023-03-20T07:26:13.739Z,16.90
2023-03-20T07:28:40.202Z,13.27
2023-03-20T07:31:06.732Z,15.80
2023-03-20T07:33:33.170Z,14.60
2023-03-20T07:35:59.677Z,11.43
2023-03-20T07:38:26.108Z,13.00
2023-03-20T07:40:54.598Z,14.00
2023-03-20T07:43:21.195Z,14.00
2023-03-20T07:45:47.666Z,12.47
2023-03-20T07:48:14.032Z,15.53
2023-03-20T07:50:40.484Z,11.70
2023-03-20T07:53:07.852Z,13.40
2023-03-20T07:55:34.467Z,9.70
2023-03-20T07:58:01.076Z,9.33
2023-03-20T08:00:28.348Z,8.70
2023-03-20T08:02:56.931Z,9.67
2023-03-20T08:05:26.819Z,11.87
2023-03-20T08:07:53.472Z,8.33
2023-03-20T08:10:19.922Z,7.47
2023-03-20T08:12:46.504Z,8.50
2023-03-20T08:15:13.039Z,6.53
2023-03-20T08:17:43.762Z,8.67
2023-03-20T08:20:11.100Z,9.80
2023-03-20T08:22:37.455Z,6.93
2023-03-20T08:25:04.123Z,9.00
2023-03-20T08:27:31.054Z,6.47
2023-03-20T08:29:57.411Z,8.23
2023-03-20T08:32:23.815Z,6.37
2023-03-20T08:34:50.242Z,6.50
2023-03-20T08:37:16.845Z,5.73
2023-03-20T08:39:43.307Z,5.67
2023-03-20T08:42:09.706Z,5.87
2023-03-20T08:44:36.216Z,6.80
2023-03-20T08:47:03.459Z,7.33
2023-03-20T08:49:29.900Z,8.43
2023-03-20T08:51:56.294Z,6.87
2023-03-20T08:54:22.868Z,5.73
2023-03-20T08:56:49.276Z,7.90
2023-03-20T08:59:15.610Z,10.23
2023-03-20T09:01:49.308Z,7.83
2023-03-20T09:04:16.985Z,7.97
2023-03-20T09:06:43.312Z,10.00
2023-03-20T09:09:09.848Z,9.33
2023-03-20T09:11:36.608Z,8.77
2023-03-20T09:14:02.966Z,8.00
2023-03-20T09:16:29.462Z,8.30
2023-03-20T09:18:56.223Z,8.37
2023-03-20T09:21:22.657Z,7.67
2023-03-20T09:23:49.025Z,10.63
2023-03-20T09:26:15.578Z,9.83
2023-03-20T09:28:42.119Z,7.00
2023-03-20T09:31:08.492Z,8.10
2023-03-20T09:33:35.013Z,7.80
2023-03-20T09:36:01.925Z,8.73
2023-03-20T09:38:28.688Z,8.03
2023-03-20T09:40:58.703Z,8.60
2023-03-20T09:43:56.386Z,9.10
2023-03-20T09:46:28.793Z,8.93
2023-03-20T09:49:07.701Z,12.13
2023-03-20T09:51:56.339Z,7.80
2023-03-20T09:54:53.645Z,6.80
2023-03-20T09:57:32.319Z,10.03
2023-03-20T10:00:03.389Z,7.33
2023-03-20T10:02:50.793Z,6.90
2023-03-20T10:05:23.277Z,7.60
2023-03-20T10:07:49.767Z,7.50
2023-03-20T10:10:20.217Z,9.10
2023-03-20T10:13:09.455Z,8.37
2023-03-20T10:16:03.274Z,10.90
2023-03-20T10:18:33.944Z,7.37
2023-03-20T10:21:15.359Z,7.97
2023-03-20T10:23:54.437Z,5.30
2023-03-20T10:26:23.661Z,6.87
2023-03-20T10:29:15.382Z,7.63
2023-03-20T10:32:03.142Z,7.60
2023-03-20T10:34:40.450Z,6.30
2023-03-20T10:37:31.638Z,8.20
2023-03-20T10:40:39.348Z,8.33
2023-03-20T10:43:17.136Z,8.20
2023-03-20T10:45:48.426Z,6.97
2023-03-20T10:48:31.129Z,7.57
2023-03-20T10:51:02.003Z,4.47
2023-03-20T10:53:49.396Z,7.10
2023-03-20T10:56:40.610Z,7.50
2023-03-20T10:59:12.363Z,4.60
2023-03-20T11:01:38.668Z,5.93
2023-03-20T11:04:06.178Z,3.10
2023-03-20T11:06:41.597Z,4.37
2023-03-20T11:09:17.697Z,3.93
2023-03-20T11:11:46.187Z,4.67
2023-03-20T11:14:18.934Z,4.80
2023-03-20T11:16:56.553Z,4.17
2023-03-20T11:19:23.918Z,6.60
2023-03-20T11:21:55.989Z,5.33
2023-03-20T11:24:41.943Z,4.67
2023-03-20T11:27:15.990Z,4.97
2023-03-20T11:29:45.738Z,5.13
2023-03-20T11:32:26.952Z,6.47
2023-03-20T11:34:57.434Z,4.50
2023-03-20T11:37:28.946Z,4.90
2023-03-20T11:40:08.946Z,5.20
2023-03-20T11:42:37.069Z,5.40
2023-03-20T11:45:07.013Z,6.77
2023-03-20T11:47:36.068Z,5.73
2023-03-20T11:50:06.359Z,3.97
2023-03-20T11:52:38.820Z,5.17
2023-03-20T11:55:23.301Z,5.70
2023-03-20T11:57:49.706Z,6.40
2023-03-20T12:00:36.067Z,4.93
2023-03-20T12:03:03.689Z,7.23
2023-03-20T12:05:41.936Z,6.13
2023-03-20T12:08:27.773Z,4.03
2023-03-20T12:10:59.720Z,3.90
2023-03-20T12:13:33.207Z,3.20
2023-03-20T12:16:04.705Z,3.83
2023-03-20T12:18:36.091Z,5.90
2023-03-20T12:21:28.826Z,5.27
2023-03-20T12:24:04.501Z,4.83
2023-03-20T12:26:34.730Z,4.13
2023-03-20T12:29:07.954Z,8.13
2023-03-20T12:31:50.117Z,3.43
2023-03-20T12:34:41.451Z,4.40
2023-03-20T12:37:12.089Z,6.00
2023-03-20T12:39:46.023Z,6.60
2023-03-20T12:42:21.468Z,6.97
2023-03-20T12:44:58.784Z,5.50
2023-03-20T12:47:52.333Z,6.90
2023-03-20T12:50:36.888Z,6.27
2023-03-20T12:53:17.413Z,8.20
2023-03-20T12:56:02.239Z,6.60
2023-03-20T12:58:51.925Z,6.37
2023-03-20T13:01:45.634Z,4.97
2023-03-20T13:04:43.213Z,4.77
2023-03-20T13:07:21.700Z,5.27
2023-03-20T13:10:21.461Z,5.13
2023-03-20T13:13:06.377Z,5.03
2023-03-20T13:15:42.142Z,5.30
2023-03-20T13:18:11.665Z,4.37
2023-03-20T13:20:51.481Z,3.70
2023-03-20T13:23:36.165Z,6.43
2023-03-20T13:26:50.948Z,7.80
2023-03-20T13:29:39.007Z,2.23
2023-03-20T13:32:36.254Z,4.20
2023-03-20T13:35:42.204Z,7.10
2023-03-20T13:38:21.622Z,5.27
2023-03-20T13:40:56.278Z,6.90
2023-03-20T13:43:31.920Z,3.23
2023-03-20T13:46:07.137Z,3.70
2023-03-20T13:48:37.847Z,4.03
2023-03-20T13:51:19.536Z,5.80
2023-03-20T13:54:18.386Z,3.20
2023-03-20T13:56:44.710Z,3.73
2023-03-20T13:59:36.166Z,4.37
2023-03-20T14:02:26.950Z,4.57
2023-03-20T14:05:04.104Z,4.17
2023-03-20T14:07:36.839Z,3.57
2023-03-20T14:10:21.501Z,7.73
2023-03-20T14:12:50.227Z,4.93
2023-03-20T14:15:19.549Z,4.43
2023-03-20T14:17:48.760Z,3.17
2023-03-20T14:20:36.970Z,6.53
2023-03-20T14:23:04.877Z,5.57
2023-03-20T14:25:41.939Z,3.17
2023-03-20T14:28:11.609Z,4.13
2023-03-20T14:30:39.930Z,5.87
2023-03-20T14:33:07.716Z,5.23
2023-03-20T14:35:39.540Z,2.93
2023-03-20T14:38:31.018Z,5.83
2023-03-20T14:41:11.677Z,4.83
2023-03-20T14:44:00.024Z,6.37
2023-03-20T14:46:26.337Z,7.03
2023-03-20T14:48:54.636Z,5.80
2023-03-20T14:51:39.387Z,7.40
2023-03-20T14:54:20.999Z,6.13
2023-03-20T14:56:52.030Z,6.10
2023-03-20T14:59:22.633Z,6.70
2023-03-20T15:02:26.267Z,6.43
2023-03-20T15:04:53.095Z,3.27
2023-03-20T15:07:25.308Z,8.57
2023-03-20T15:09:56.657Z,5.47
2023-03-20T15:12:28.884Z,4.90
2023-03-20T15:15:03.955Z,6.40
2023-03-20T15:17:47.498Z,3.20
2023-03-20T15:20:24.772Z,6.83
2023-03-20T15:22:58.000Z,6.33
2023-03-20T15:25:45.172Z,7.37
2023-03-20T15:28:22.613Z,3.63
2023-03-20T15:30:51.397Z,4.47
2023-03-20T15:33:26.419Z,9.23
2023-03-20T15:35:53.242Z,7.30
2023-03-20T15:38:20.821Z,7.47
2023-03-20T15:40:51.391Z,5.87
2023-03-20T15:43:24.290Z,7.07
2023-03-20T15:46:02.859Z,5.47
2023-03-20T15:48:36.642Z,6.93
2023-03-20T15:51:04.980Z,4.43
2023-03-20T15:53:35.724Z,8.23
2023-03-20T15:56:17.190Z,5.13
2023-03-20T15:58:46.211Z,6.93
2023-03-20T16:01:18.557Z,5.67
2023-03-20T16:03:45.122Z,5.23
2023-03-20T16:06:16.324Z,3.90
2023-03-20T16:08:42.743Z,5.93
2023-03-20T16:11:15.424Z,6.80
2023-03-20T16:13:46.434Z,6.47
2023-03-20T16:16:18.944Z,8.63
2023-03-20T16:18:48.017Z,8.20
2023-03-20T16:21:26.145Z,6.80
2023-03-20T16:23:55.833Z,6.70
2023-03-20T16:26:24.378Z,8.33
2023-03-20T16:28:56.469Z,6.57
2023-03-20T16:31:28.683Z,7.83
2023-03-20T16:33:59.856Z,6.47
2023-03-20T16:36:30.545Z,9.30
2023-03-20T16:39:17.127Z,8.23
2023-03-20T16:41:45.532Z,5.27
2023-03-20T16:44:23.285Z,7.70
2023-03-20T16:47:01.074Z,6.40
2023-03-20T16:49:29.599Z,6.50
2023-03-20T16:51:59.659Z,8.27
2023-03-20T16:54:30.644Z,8.47
2023-03-20T16:56:57.672Z,8.33
2023-03-20T16:59:25.583Z,6.13
2023-03-20T17:01:54.104Z,6.83
2023-03-20T17:04:42.490Z,4.63
2023-03-20T17:07:18.342Z,5.60
2023-03-20T17:09:53.630Z,5.07
2023-03-20T17:12:20.055Z,6.73
2023-03-20T17:14:46.536Z,5.63
2023-03-20T17:17:19.544Z,5.10
2023-03-20T17:19:46.944Z,4.77
2023-03-20T17:22:15.834Z,4.73
2023-03-20T17:24:42.472Z,7.40
2023-03-20T17:27:12.015Z,3.87
2023-03-20T17:29:39.451Z,7.60
2023-03-20T17:32:14.276Z,6.93
2023-03-20T17:34:41.088Z,5.43
2023-03-20T17:37:13.447Z,6.57
2023-03-20T17:39:40.457Z,8.20
2023-03-20T17:42:24.463Z,7.83
2023-03-20T17:44:50.863Z,8.90
2023-03-20T17:47:20.937Z,7.70
2023-03-20T17:49:47.760Z,9.87
2023-03-20T17:52:19.801Z,7.70
2023-03-20T17:54:46.955Z,5.37
2023-03-20T17:57:22.456Z,7.77
2023-03-20T17:59:49.999Z,8.17
2023-03-20T18:02:18.192Z,6.83
2023-03-20T18:04:45.777Z,5.90
2023-03-20T18:07:12.677Z,6.03
2023-03-20T18:09:43.563Z,12.07
2023-03-20T18:12:14.343Z,5.40
2023-03-20T18:14:42.172Z,6.07
2023-03-20T18:17:10.335Z,9.00
2023-03-20T18:19:36.713Z,4.50
2023-03-20T18:22:04.176Z,7.73
2023-03-20T18:24:30.882Z,7.80
2023-03-20T18:26:57.382Z,4.53
2023-03-20T18:29:23.728Z,7.73
2023-03-20T18:31:50.392Z,7.03
2023-03-20T18:34:17.148Z,3.77
2023-03-20T18:36:45.573Z,4.53
2023-03-20T18:39:19.831Z,7.33
2023-03-20T18:41:46.436Z,4.00
2023-03-20T18:44:13.326Z,3.80
2023-03-20T18:46:40.394Z,7.43
2023-03-20T18:49:07.066Z,6.07
2023-03-20T18:51:33.562Z,4.57
2023-03-20T18:54:00.155Z,4.60
2023-03-20T18:56:28.242Z,4.53
2023-03-20T18:58:54.706Z,4.00
2023-03-20T19:01:21.449Z,8.03
2023-03-20T19:03:48.152Z,6.83
2023-03-20T19:06:20.514Z,7.57
2023-03-20T19:08:48.760Z,9.47
2023-03-20T19:11:17.889Z,6.00
2023-03-20T19:13:49.468Z,6.63
2023-03-20T19:16:37.862Z,6.43
2023-03-20T19:19:06.242Z,6.80
2023-03-20T19:21:34.392Z,5.90
2023-03-20T19:24:04.588Z,5.97
2023-03-20T19:26:32.524Z,7.80
2023-03-20T19:29:01.178Z,7.37
2023-03-20T19:31:28.489Z,7.47
2023-03-20T19:33:56.570Z,7.53
2023-03-20T19:36:27.274Z,6.03
2023-03-20T19:38:54.673Z,7.23
2023-03-20T19:41:21.291Z,5.57
2023-03-20T19:43:52.865Z,9.17
2023-03-20T19:46:38.258Z,9.67
2023-03-20T19:49:06.436Z,10.73
2023-03-20T19:51:33.149Z,6.60
2023-03-20T19:53:59.606Z,9.33
2023-03-20T19:56:27.037Z,9.77
2023-03-20T19:58:53.504Z,6.37
2023-03-20T20:01:23.420Z,3.70
2023-03-20T20:03:53.368Z,4.43
2023-03-20T20:06:22.186Z,8.13
2023-03-20T20:08:50.436Z,7.50
2023-03-20T20:11:18.476Z,6.93
2023-03-20T20:14:04.718Z,5.97
2023-03-20T20:16:32.728Z,6.30
2023-03-20T20:18:59.172Z,8.63
2023-03-20T20:22:16.855Z,8.13
2023-03-20T20:24:12.374Z,10.53
2023-03-20T20:26:45.254Z,9.30
2023-03-20T20:29:15.821Z,10.30
2023-03-20T20:31:43.983Z,10.20
2023-03-20T20:39:47.615Z,16.53
2023-03-20T20:42:14.544Z,11.80
2023-03-20T20:44:40.957Z,7.00
2023-03-20T20:47:08.162Z,11.17
2023-03-20T20:49:35.007Z,7.10
2023-03-20T20:52:01.478Z,5.90
2023-03-20T20:54:28.841Z,6.80
2023-03-20T20:56:56.184Z,9.23
2023-03-20T20:59:23.182Z,7.50
2023-03-20T21:01:50.577Z,7.33
2023-03-20T21:04:17.146Z,9.10
2023-03-20T21:07:08.168Z,9.93
2023-03-20T21:09:30.202Z,8.83
2023-03-20T21:11:56.677Z,6.27
2023-03-20T21:14:23.248Z,7.80
2023-03-20T21:16:50.273Z,6.40
2023-03-20T21:19:16.717Z,5.53
2023-03-20T21:21:43.121Z,7.00
2023-03-20T21:24:30.547Z,7.57
2023-03-20T21:27:03.064Z,10.57
2023-03-20T21:29:29.508Z,9.17
2023-03-20T21:31:56.096Z,9.17
2023-03-20T21:34:22.757Z,9.40
2023-03-20T21:36:51.368Z,5.70
2023-03-20T21:39:18.628Z,11.30
2023-03-20T21:41:45.986Z,4.37
2023-03-20T21:44:17.726Z,5.20
2023-03-20T22:04:00.531Z,6.13
2023-03-20T22:31:55.237Z,5.63
2023-03-20T22:34:46.121Z,7.60
2023-03-20T22:45:10.633Z,6.10
2023-03-20T22:47:37.611Z,7.00
2023-03-20T22:50:05.281Z,5.77
2023-03-20T22:52:47.744Z,8.30
2023-03-20T22:55:16.510Z,12.10
2023-03-20T22:57:52.847Z,14.73
2023-03-20T23:00:27.025Z,6.37
2023-03-20T23:02:57.430Z,4.77
2023-03-20T23:05:26.984Z,6.00
2023-03-20T23:07:53.319Z,11.17
2023-03-20T23:10:19.678Z,15.93
2023-03-20T23:12:46.064Z,16.73
2023-03-20T23:15:12.648Z,10.87
2023-03-20T23:17:39.012Z,9.17
2023-03-20T23:20:12.320Z,6.47
2023-03-20T23:22:40.542Z,6.53
2023-03-20T23:25:23.941Z,11.73
2023-03-20T23:27:54.591Z,7.30
2023-03-20T23:30:23.380Z,5.80
2023-03-20T23:32:51.578Z,4.40
2023-03-20T23:35:18.619Z,5.97
2023-03-20T23:37:44.979Z,6.27
2023-03-20T23:40:12.030Z,4.00
2023-03-20T23:42:38.454Z,3.60
2023-03-20T23:45:19.269Z,4.77
2023-03-20T23:47:48.025Z,4.87
2023-03-20T23:50:26.397Z,6.93
2023-03-20T23:53:03.439Z,4.80
2023-03-20T23:55:35.562Z,8.67
2023-03-20T23:58:02.394Z,5.90
